This is the latest recevied weather packets stored in our database for station/object KC0RPY. If no packets are shown the sender has not sent any weather packets the latest 10 day(s).
| Time | Temp. | Humidity | Pressure | Rain* | Wind** | Luminosity | Snow |
|---|---|---|---|---|---|---|---|
| 1777400705 | 13.89° C | 71% | 1015 hPa | 0 mm | - | 341 W/m² | - |
| 1777400402 | 13.89° C | 72% | 1015.3 hPa | 0 mm | - | 880 W/m² | - |
| 1777400097 | 13.33° C | 72% | 1016 hPa | 0 mm | - | 711 W/m² | - |
| 1777399795 | 13.33° C | 73% | 1016 hPa | 0 mm | - | 565 W/m² | - |
| 1777399492 | 13.89° C | 71% | 1016 hPa | 0 mm | - | 427 W/m² | - |
| 1777399189 | 14.44° C | 70% | 1016.3 hPa | 0 mm | - | 714 W/m² | - |
| 1777398886 | 13.89° C | 69% | 1016.3 hPa | 0 mm | - | 586 W/m² | - |
| 1777398583 | 14.44° C | 70% | 1016.3 hPa | 0 mm | - | 396 W/m² | - |
| 1777398279 | 14.44° C | 69% | 1016.3 hPa | 0 mm | - | 531 W/m² | - |
| 1777397977 | 12.78° C | 72% | 1016.3 hPa | 0 mm | - | 1061 W/m² | - |
| 1777397673 | 12.78° C | 73% | 1017 hPa | 0 mm | - | 393 W/m² | - |
| 1777397369 | 13.33° C | 71% | 1017 hPa | 0 mm | - | 411 W/m² | - |
| 1777397066 | 12.22° C | 74% | 1017 hPa | 0 mm | - | 446 W/m² | - |
| 1777396762 | 12.22° C | 73% | 1017 hPa | 0 mm | - | 346 W/m² | - |
| 1777396459 | 12.78° C | 73% | 1017 hPa | 0 mm | - | 299 W/m² | - |
| 1777396156 | 12.78° C | 73% | 1017 hPa | 0 mm | - | 272 W/m² | - |
| 1777395852 | 12.78° C | 72% | 1017 hPa | 0 mm | - | 320 W/m² | - |
| 1777395547 | 12.22° C | 75% | 1017.3 hPa | 0 mm | - | 313 W/m² | - |
| 1777395244 | 12.22° C | 76% | 1017.7 hPa | 0 mm | - | 356 W/m² | - |
| 1777394942 | 12.22° C | 76% | 1017.7 hPa | 0 mm | - | 237 W/m² | - |
| 1777394637 | 11.67° C | 76% | 1017.3 hPa | 0 mm | - | 290 W/m² | - |
| 1777394334 | 12.22° C | 75% | 1017.3 hPa | 0 mm | - | 255 W/m² | - |
| 1777394025 | 12.22° C | 75% | 1017 hPa | 0 mm | - | 287 W/m² | - |
| 1777393725 | 11.67° C | 77% | 1017 hPa | 0 mm | - | 483 W/m² | - |
| 1777393420 | 11.67° C | 76% | 1017 hPa | 0 mm | - | 267 W/m² | - |
* Rain latest hour (hover to see other rain measurements)
** Current wind speed in m/s (hover to see current wind gust speed)